Roblin, Canada
Current Conditions -  °F | °C
As of 3:00 AM on Sunday 26 Oct 2014 (Local Time) from CYQV Reporting Station
Overcast Overcast  
Wind Chill: 32°   Ceiling: 15000
Heat Index: 39°   Visibility: 9mi
Dew Point: 28°   Wind: 13mph
Humidity: 65%   Direction: 120°ESE
Pressure: 29.79"   Gusts: NA
Location:  51.23°N, 101.35°W
Report Text: CYQV 260800Z AUTO 12011KT 9SM OVC150 04/M02 A2979 RMK PRESFR SLP104
Loading
Personal Weather Stations






























Interactive Weather Map
Tropical Storm Tracking
New forecast layout! Learn more

10-Day Weather Forecast

Advertisements
Track Severe Weather on mobile